createdAt,value
2023-05-23T00:11:31.735Z,18.08
2023-05-23T00:26:34.774Z,17.98
2023-05-23T00:41:37.841Z,17.65
2023-05-23T00:56:40.990Z,17.79
2023-05-23T01:11:48.658Z,17.84
2023-05-23T01:27:01.994Z,17.64
2023-05-23T01:42:05.576Z,17.43
2023-05-23T01:57:08.822Z,17.31
2023-05-23T02:12:11.935Z,17.07
2023-05-23T02:27:15.524Z,16.38
2023-05-23T02:42:18.705Z,15.81
2023-05-23T02:57:22.224Z,15.60
2023-05-23T03:12:25.425Z,15.38
2023-05-23T03:27:29.684Z,15.02
2023-05-23T03:42:32.953Z,15.14
2023-05-23T03:57:36.056Z,15.33
2023-05-23T04:12:39.191Z,15.36
2023-05-23T04:27:44.633Z,15.46
2023-05-23T04:42:48.321Z,15.67
2023-05-23T04:58:13.940Z,15.54
2023-05-23T05:13:17.908Z,15.40
2023-05-23T05:28:24.978Z,15.54
2023-05-23T05:43:29.684Z,15.51
2023-05-23T05:58:32.825Z,15.84
2023-05-23T06:13:39.206Z,16.14
2023-05-23T06:28:43.484Z,15.71
2023-05-23T06:43:48.692Z,15.70
2023-05-23T06:58:59.217Z,15.55
2023-05-23T07:14:03.516Z,15.68
2023-05-23T07:29:21.190Z,18.13
2023-05-23T07:44:25.883Z,17.28
2023-05-23T07:59:30.210Z,17.02
2023-05-23T08:14:46.371Z,18.61
2023-05-23T08:29:59.931Z,18.29
2023-05-23T08:45:03.551Z,18.48
2023-05-23T09:00:09.090Z,18.40
2023-05-23T09:15:12.806Z,17.67
2023-05-23T09:30:17.904Z,17.41
2023-05-23T09:45:29.934Z,17.76
2023-05-23T10:00:33.283Z,18.98
2023-05-23T10:15:39.272Z,18.32
2023-05-23T10:30:43.026Z,17.88
2023-05-23T10:45:46.477Z,17.79
2023-05-23T11:00:53.529Z,18.01
2023-05-23T11:15:56.638Z,17.44
2023-05-23T11:31:00.588Z,17.81
2023-05-23T11:46:09.317Z,17.59
2023-05-23T12:01:12.868Z,18.15
2023-05-23T12:16:16.176Z,18.87
2023-05-23T12:31:21.510Z,19.33
2023-05-23T12:46:26.043Z,19.33
2023-05-23T13:01:29.199Z,18.73
2023-05-23T13:16:32.474Z,18.34
2023-05-23T13:31:35.761Z,18.35
2023-05-23T13:46:38.984Z,17.81
2023-05-23T14:01:42.068Z,17.69
2023-05-23T14:16:45.269Z,17.54
2023-05-23T14:31:48.368Z,17.55
2023-05-23T14:46:51.434Z,17.08
2023-05-23T15:01:54.681Z,16.73
2023-05-23T15:16:57.766Z,17.09
2023-05-23T15:32:01.389Z,17.21
2023-05-23T15:47:06.313Z,17.35
2023-05-23T16:02:10.213Z,17.24
2023-05-23T16:17:14.793Z,16.99
2023-05-23T16:32:18.920Z,16.82
2023-05-23T16:47:22.330Z,16.47
2023-05-23T17:02:25.881Z,16.21
2023-05-23T17:17:29.791Z,16.20
2023-05-23T17:32:33.191Z,16.02
2023-05-23T17:47:37.993Z,15.61
2023-05-23T18:02:41.506Z,15.46
2023-05-23T18:17:45.240Z,14.77
2023-05-23T18:32:48.680Z,14.38
2023-05-23T18:47:52.121Z,14.07
2023-05-23T19:02:57.769Z,13.79
2023-05-23T19:18:04.225Z,13.57
2023-05-23T19:33:07.896Z,13.18
2023-05-23T19:48:15.292Z,12.66
2023-05-23T20:03:19.573Z,12.49
2023-05-23T20:18:27.838Z,12.44
2023-05-23T20:33:33.581Z,12.48
2023-05-23T20:48:39.117Z,12.61
2023-05-23T21:03:43.514Z,12.36
2023-05-23T21:18:47.002Z,12.14
2023-05-23T21:33:51.816Z,11.57
2023-05-23T21:48:54.857Z,11.43
2023-05-23T22:03:58.599Z,11.09
2023-05-23T22:19:01.904Z,10.97
2023-05-23T22:34:05.317Z,10.77
2023-05-23T22:49:08.434Z,10.40
2023-05-23T23:04:11.487Z,10.12
2023-05-23T23:19:14.632Z,9.92
2023-05-23T23:34:17.736Z,9.72
2023-05-23T23:49:20.767Z,9.37
